Cherokee, IA (51012)

6:39 PM CDT on May 04, 2015 (GMT -0500)
APRSWXNET | | Change Station
CLOSE
Current Station
Personal Weather Station
Location: Cherokee, IA
Elevation: 1312 ft
Nearby Weather Stations

Elev 1312 ft 42.76 °N, 95.52 °W | Updated 36 minutes ago

Scattered Clouds
Scattered Clouds
66 °F
Feels Like 66 °F
N
3
Wind Variable Wind from ESE
Gusts 0.0 mph

Today
High -- | Low -- °F
--% Chance of Precip.
Yesterday
High -- | Low -- °F
Precip. -- in
6:12 AM 8:25 PM
Full, 99% visible
Pressure 30.13 in
Visibility 10.0 miles
Clouds Scattered Clouds 12000 ft
Dew Point 45 °F
Humidity 47%
Rainfall in
Snow Depth Not available.
UV 1 out of 12
Pollen 6.00 out of 12
Air Quality Not available.
Flu Activity Local Activity
METAR KCKP 042315Z AUTO 12008KT 10SM SCT120 18/06 A3013 RMK AO2 LTG DSNT S T01800064

More Conditions Fewer Conditions

Pressure 30.13 in
Visibility 10.0 miles
Clouds Scattered Clouds 12000 ft
Dew Point 45 °F
Humidity 47%
Rainfall in
Snow Depth Not available.
UV 1 out of 12
Pollen 6.00 out of 12
Air Quality Not available.
Flu Activity Local Activity
METAR KCKP 042315Z AUTO 12008KT 10SM SCT120 18/06 A3013 RMK AO2 LTG DSNT S T01800064

More Conditions Fewer Conditions

Nepal has a long way to go to dig out and rebuild from a devastating earthquake. We have teamed up with several charities and organizations to make contributing to the relief effort as easy as possible.
How you can help: Portlight Strategies | Red Cross

10-Day Weather Forecast

Almanac

Astronomy

May. 04, 2015 Rise Set
Actual Time
Civil Twilight
Nautical Twilight
Astronomical Twilight
Moon
Length of Visible Light
Length of Day
Tomorrow will be .
, % of the Moon is Illuminated

Today's Extremes

State Highs State Lows

Community

WunderPhotos

Upload Photos

1,818,734 photos uploaded!

WunderBlogs® & News

Nearby

Air Quality

  Air Quality AQ Index Pollutant
Not available.

Snow Depth

Station Depth Elevation

Earthquake Activity

City Distance Mag. Time & Date
Minimum magnitude displayed is 2.5.

Coastal Water Temperatures

Place Temperature

Stations

Nearby Weather Stations

Station Location Temp. Windchill Dew Point Humidity Wind Precip. Elev Updated Type